createdAt,value
2023-03-11T00:00:49.576Z,8.57
2023-03-11T00:03:29.002Z,8.48
2023-03-11T00:06:00.218Z,8.39
2023-03-11T00:08:28.609Z,8.31
2023-03-11T00:11:00.542Z,8.23
2023-03-11T00:13:29.809Z,8.14
2023-03-11T00:15:59.817Z,8.06
2023-03-11T00:18:31.433Z,7.99
2023-03-11T00:21:00.418Z,7.92
2023-03-11T00:23:29.073Z,7.85
2023-03-11T00:25:57.292Z,7.82
2023-03-11T00:28:26.945Z,7.79
2023-03-11T00:30:55.465Z,7.78
2023-03-11T00:33:24.091Z,7.75
2023-03-11T00:35:52.222Z,7.73
2023-03-11T00:38:21.641Z,7.72
2023-03-11T00:40:50.291Z,7.74
2023-03-11T00:43:18.787Z,7.79
2023-03-11T00:45:46.929Z,7.83
2023-03-11T00:48:15.527Z,7.85
2023-03-11T00:50:43.687Z,7.90
2023-03-11T00:53:12.580Z,7.95
2023-03-11T00:55:41.321Z,7.99
2023-03-11T00:58:13.113Z,8.05
2023-03-11T01:00:49.942Z,8.12
2023-03-11T01:03:17.948Z,8.18
2023-03-11T01:05:47.085Z,8.26
2023-03-11T01:08:15.075Z,8.33
2023-03-11T01:10:43.284Z,8.34
2023-03-11T01:13:11.623Z,8.33
2023-03-11T01:15:39.628Z,8.30
2023-03-11T01:18:07.723Z,8.25
2023-03-11T01:20:37.313Z,8.23
2023-03-11T01:23:07.835Z,8.21
2023-03-11T01:25:36.557Z,8.20
2023-03-11T01:28:05.821Z,8.16
2023-03-11T01:30:36.552Z,8.12
2023-03-11T01:33:05.590Z,8.11
2023-03-11T01:35:33.671Z,8.10
2023-03-11T01:38:02.018Z,8.05
2023-03-11T01:40:38.677Z,8.01
2023-03-11T01:44:00.335Z,7.98
2023-03-11T01:46:54.330Z,7.95
2023-03-11T01:49:26.447Z,7.91
2023-03-11T01:52:03.828Z,7.89
2023-03-11T01:54:34.340Z,7.88
2023-03-11T01:57:09.679Z,7.86
2023-03-11T01:59:45.506Z,7.85
2023-03-11T02:02:32.800Z,7.84
2023-03-11T02:05:03.251Z,7.82
2023-03-11T02:07:31.602Z,7.81
2023-03-11T02:10:00.678Z,7.80
2023-03-11T02:12:34.170Z,7.79
2023-03-11T02:15:03.696Z,7.79
2023-03-11T02:17:32.066Z,7.79
2023-03-11T02:20:12.436Z,7.81
2023-03-11T02:22:43.139Z,7.83
2023-03-11T02:25:26.642Z,7.84
2023-03-11T02:27:57.002Z,7.84
2023-03-11T02:30:27.646Z,7.84
2023-03-11T02:32:56.966Z,7.83
2023-03-11T02:35:25.655Z,7.82
2023-03-11T02:37:55.636Z,7.78
2023-03-11T02:40:33.368Z,7.72
2023-03-11T02:43:05.932Z,7.65
2023-03-11T02:45:35.943Z,7.60
2023-03-11T02:48:04.479Z,7.57
2023-03-11T02:50:34.624Z,7.55
2023-03-11T02:53:04.881Z,7.53
2023-03-11T02:55:33.512Z,7.52
2023-03-11T02:58:01.764Z,7.50
2023-03-11T03:04:34.149Z,7.51
2023-03-11T03:07:02.740Z,7.53
2023-03-11T03:09:32.833Z,7.54
2023-03-11T03:12:00.895Z,7.56
2023-03-11T03:14:31.126Z,7.59
2023-03-11T03:16:59.488Z,7.63
2023-03-11T03:19:27.674Z,7.68
2023-03-11T03:21:56.163Z,7.80
2023-03-11T03:24:24.527Z,7.89
2023-03-11T03:26:52.836Z,7.97
2023-03-11T03:29:21.012Z,8.05
2023-03-11T03:31:50.520Z,8.11
2023-03-11T03:34:18.612Z,8.18
2023-03-11T03:36:46.676Z,8.21
2023-03-11T03:39:20.098Z,8.21
2023-03-11T03:41:49.410Z,8.20
2023-03-11T03:44:17.588Z,8.22
2023-03-11T03:46:46.159Z,8.25
2023-03-11T03:49:14.241Z,8.28
2023-03-11T03:51:42.340Z,8.33
2023-03-11T03:54:19.752Z,8.32
2023-03-11T03:56:47.807Z,8.31
2023-03-11T03:59:16.138Z,8.30
2023-03-11T04:01:49.058Z,8.31
2023-03-11T04:04:17.450Z,8.32
2023-03-11T04:06:45.756Z,8.31
2023-03-11T04:09:14.232Z,8.31
2023-03-11T04:11:42.619Z,8.30
2023-03-11T04:14:11.751Z,8.28
2023-03-11T04:16:43.720Z,8.23
2023-03-11T04:19:13.033Z,8.19
2023-03-11T04:21:41.700Z,8.15
2023-03-11T04:24:09.813Z,8.10
2023-03-11T04:26:39.419Z,8.05
2023-03-11T04:29:10.138Z,8.02
2023-03-11T04:31:42.189Z,8.01
2023-03-11T04:34:10.401Z,8.00
2023-03-11T04:36:38.855Z,7.97
2023-03-11T04:39:08.207Z,7.93
2023-03-11T04:41:40.499Z,7.85
2023-03-11T04:44:09.021Z,7.76
2023-03-11T04:46:37.266Z,7.69
2023-03-11T04:49:06.408Z,7.64
2023-03-11T04:51:34.604Z,7.62
2023-03-11T04:54:02.792Z,7.60
2023-03-11T04:56:31.168Z,7.54
2023-03-11T04:58:59.922Z,7.48
2023-03-11T05:01:28.995Z,7.45
2023-03-11T05:03:57.424Z,7.39
2023-03-11T05:06:25.951Z,7.32
2023-03-11T05:08:54.530Z,7.24
2023-03-11T05:11:23.014Z,7.14
2023-03-11T05:13:51.103Z,7.08
2023-03-11T05:16:20.003Z,7.06
2023-03-11T05:18:48.346Z,7.09
2023-03-11T05:21:16.910Z,7.17
2023-03-11T05:23:45.565Z,7.23
2023-03-11T05:26:14.745Z,7.28
2023-03-11T05:28:44.254Z,7.29
2023-03-11T05:31:12.655Z,7.29
2023-03-11T05:33:41.239Z,7.29
2023-03-11T05:36:12.066Z,7.28
2023-03-11T05:38:42.864Z,7.26
2023-03-11T05:41:11.645Z,7.23
2023-03-11T05:43:40.244Z,7.17
2023-03-11T05:46:08.487Z,7.10
2023-03-11T05:48:36.968Z,7.06
2023-03-11T05:51:10.073Z,7.03
2023-03-11T05:53:39.312Z,6.98
2023-03-11T05:56:07.751Z,6.93
2023-03-11T05:58:35.877Z,6.92
2023-03-11T06:01:09.521Z,6.92
2023-03-11T06:03:39.336Z,6.91
2023-03-11T06:06:09.630Z,6.91
2023-03-11T06:08:46.032Z,6.90
2023-03-11T06:11:17.122Z,6.89
2023-03-11T06:13:45.746Z,6.87
2023-03-11T06:16:14.850Z,6.87
2023-03-11T06:23:42.034Z,6.87
2023-03-11T07:17:58.635Z,7.15
2023-03-11T07:20:27.106Z,7.15
2023-03-11T07:22:55.528Z,7.18
2023-03-11T07:25:23.669Z,7.22
2023-03-11T07:27:52.296Z,7.27
2023-03-11T07:30:22.105Z,7.32
2023-03-11T07:32:50.688Z,7.38
2023-03-11T07:35:19.499Z,7.46
2023-03-11T07:37:47.627Z,7.54
2023-03-11T07:40:17.233Z,7.63
2023-03-11T07:42:45.190Z,7.73
2023-03-11T07:45:13.913Z,7.85
2023-03-11T07:47:42.058Z,7.97
2023-03-11T07:50:11.112Z,8.04
2023-03-11T07:52:39.859Z,8.08
2023-03-11T07:55:09.201Z,8.11
2023-03-11T07:57:37.296Z,8.16
2023-03-11T08:00:06.147Z,8.28
2023-03-11T08:02:40.091Z,8.46
2023-03-11T08:05:10.790Z,8.66
2023-03-11T08:07:39.153Z,8.84
2023-03-11T08:10:08.144Z,9.01
2023-03-11T08:12:38.662Z,9.19
2023-03-11T08:15:07.431Z,9.33
2023-03-11T08:17:36.088Z,9.45
2023-03-11T08:20:05.219Z,9.58
2023-03-11T08:22:33.372Z,9.64
2023-03-11T08:25:01.616Z,9.67
2023-03-11T08:27:29.970Z,9.75
2023-03-11T08:29:59.301Z,9.73
2023-03-11T08:32:27.431Z,9.77
2023-03-11T08:34:55.833Z,9.82
2023-03-11T08:37:24.586Z,9.81
2023-03-11T08:39:53.394Z,9.84
2023-03-11T08:42:21.419Z,9.92
2023-03-11T08:44:52.149Z,9.96
2023-03-11T08:47:20.711Z,9.94
2023-03-11T08:49:50.610Z,9.93
2023-03-11T08:52:18.896Z,9.92
2023-03-11T08:54:47.482Z,9.87
2023-03-11T08:57:16.922Z,9.83
2023-03-11T08:59:47.068Z,9.78
2023-03-11T09:02:15.730Z,9.74
2023-03-11T09:04:44.037Z,9.71
2023-03-11T09:07:17.809Z,9.74
2023-03-11T09:09:46.199Z,9.80
2023-03-11T09:12:14.390Z,9.83
2023-03-11T09:14:44.008Z,9.82
2023-03-11T09:17:12.537Z,9.72
2023-03-11T09:19:40.578Z,9.74
2023-03-11T09:22:08.602Z,9.76
2023-03-11T09:24:36.801Z,9.78
2023-03-11T09:27:04.857Z,9.78
2023-03-11T09:29:34.036Z,9.77
2023-03-11T09:32:02.750Z,9.78
2023-03-11T09:34:31.320Z,9.76
2023-03-11T09:37:01.534Z,9.81
2023-03-11T09:39:30.026Z,9.88
2023-03-11T09:41:59.894Z,9.99
2023-03-11T09:44:27.864Z,10.11
2023-03-11T09:47:30.225Z,10.18
2023-03-11T09:50:23.523Z,10.30
2023-03-11T09:53:04.520Z,10.44
2023-03-11T09:55:46.408Z,10.55
2023-03-11T09:58:51.258Z,10.70
2023-03-11T10:01:33.369Z,10.91
2023-03-11T10:04:32.213Z,11.06
2023-03-11T10:07:02.434Z,11.26
2023-03-11T10:09:54.191Z,11.33
2023-03-11T10:12:22.152Z,11.26
2023-03-11T10:15:21.058Z,11.09
2023-03-11T10:18:30.777Z,10.95
2023-03-11T10:26:05.336Z,10.78
2023-03-11T11:19:48.803Z,10.45
2023-03-11T11:22:20.472Z,10.48
2023-03-11T11:24:54.325Z,10.52
2023-03-11T11:27:25.518Z,10.61
2023-03-11T11:30:15.770Z,10.76
2023-03-11T11:32:44.221Z,10.71
2023-03-11T11:35:14.750Z,10.52
2023-03-11T11:38:01.617Z,10.23
2023-03-11T11:40:33.517Z,10.00
2023-03-11T11:43:20.045Z,9.77
2023-03-11T11:45:59.510Z,9.62
2023-03-11T11:48:45.124Z,9.50
2023-03-11T11:51:32.362Z,9.44
2023-03-11T11:54:07.297Z,9.40
2023-03-11T11:56:35.352Z,9.33
2023-03-11T11:59:14.116Z,9.20
2023-03-11T12:02:14.472Z,9.08
2023-03-11T12:04:45.271Z,9.00
2023-03-11T12:07:42.634Z,8.97
2023-03-11T12:10:32.310Z,8.94
2023-03-11T12:13:29.311Z,8.92
2023-03-11T12:16:23.220Z,8.91
2023-03-11T12:18:53.868Z,8.89
2023-03-11T12:21:34.083Z,8.90
2023-03-11T12:24:21.918Z,8.90
2023-03-11T12:26:53.989Z,9.00
2023-03-11T12:29:45.728Z,9.27
2023-03-11T12:32:30.446Z,9.45
2023-03-11T12:35:19.912Z,9.47
2023-03-11T12:38:05.240Z,9.52
2023-03-11T12:40:43.172Z,9.65
2023-03-11T12:43:30.230Z,9.80
2023-03-11T12:46:01.129Z,9.98
2023-03-11T12:48:35.182Z,10.18
2023-03-11T12:51:04.096Z,10.31
2023-03-11T12:53:49.050Z,10.38
2023-03-11T12:56:45.535Z,10.35
2023-03-11T12:59:28.839Z,10.16
2023-03-11T13:02:10.595Z,9.90
2023-03-11T13:04:47.929Z,9.71
2023-03-11T13:07:22.488Z,9.50
2023-03-11T13:10:15.785Z,9.29
2023-03-11T13:12:48.671Z,9.22
2023-03-11T13:15:20.010Z,9.06
2023-03-11T13:18:03.138Z,8.91
2023-03-11T13:20:42.909Z,8.69
2023-03-11T13:23:34.638Z,8.33
2023-03-11T13:26:27.408Z,8.00
2023-03-11T13:29:11.597Z,7.72
2023-03-11T13:32:17.901Z,7.50
2023-03-11T13:35:07.991Z,7.27
2023-03-11T13:37:42.837Z,7.13
2023-03-11T13:40:25.467Z,7.07
2023-03-11T13:42:58.574Z,7.01
2023-03-11T13:45:36.993Z,6.94
2023-03-11T13:48:05.143Z,6.82
2023-03-11T13:50:40.535Z,6.65
2023-03-11T13:53:17.659Z,6.44
2023-03-11T13:55:47.133Z,6.26
2023-03-11T13:58:23.573Z,6.08
2023-03-11T14:01:00.505Z,5.85
2023-03-11T14:03:33.938Z,5.64
2023-03-11T14:06:19.306Z,5.47
2023-03-11T14:08:56.520Z,5.33
2023-03-11T14:11:31.680Z,5.14
2023-03-11T14:14:00.075Z,5.05
2023-03-11T14:16:44.228Z,5.14
2023-03-11T14:19:18.289Z,5.37
2023-03-11T14:21:50.377Z,5.55
2023-03-11T14:24:23.309Z,5.73
2023-03-11T14:26:56.231Z,5.87
2023-03-11T14:29:30.238Z,5.84
2023-03-11T14:31:58.377Z,5.70
2023-03-11T14:34:28.923Z,5.65
2023-03-11T14:36:59.518Z,5.63
2023-03-11T14:39:32.570Z,5.66
2023-03-11T14:42:26.266Z,5.64
2023-03-11T14:45:01.998Z,5.50
2023-03-11T14:47:38.517Z,5.44
2023-03-11T14:50:14.033Z,5.41
2023-03-11T14:53:05.364Z,5.37
2023-03-11T14:55:40.442Z,5.37
2023-03-11T14:58:26.457Z,5.38
2023-03-11T15:01:00.423Z,5.38
2023-03-11T15:03:35.635Z,5.36
2023-03-11T15:06:14.264Z,5.37
2023-03-11T15:08:49.280Z,5.35
2023-03-11T15:11:17.188Z,5.31
2023-03-11T15:13:47.587Z,5.22
2023-03-11T15:16:35.465Z,5.18
2023-03-11T15:19:28.512Z,5.04
2023-03-11T15:21:59.929Z,4.87
2023-03-11T15:24:31.770Z,4.71
2023-03-11T15:27:06.398Z,4.52
2023-03-11T15:29:36.018Z,4.35
2023-03-11T15:32:37.860Z,4.23
2023-03-11T15:35:10.710Z,4.10
2023-03-11T15:37:41.009Z,4.00
2023-03-11T15:40:12.515Z,3.93
2023-03-11T15:42:40.793Z,3.86
2023-03-11T15:45:14.117Z,3.82
2023-03-11T15:47:43.119Z,3.81
2023-03-11T15:50:24.892Z,3.81
2023-03-11T15:52:57.688Z,3.79
2023-03-11T15:55:27.412Z,3.77
2023-03-11T15:58:05.658Z,3.76
2023-03-11T16:00:35.010Z,3.70
2023-03-11T16:03:06.239Z,3.65
2023-03-11T16:05:34.666Z,3.61
2023-03-11T16:08:02.772Z,3.55
2023-03-11T16:10:30.835Z,3.54
2023-03-11T16:12:59.195Z,3.53
2023-03-11T16:15:34.543Z,3.50
2023-03-11T16:18:05.352Z,3.50
2023-03-11T16:20:54.266Z,3.49
2023-03-11T16:23:25.907Z,3.47
2023-03-11T16:25:59.689Z,3.46
2023-03-11T16:28:28.325Z,3.45
2023-03-11T16:30:56.452Z,3.43
2023-03-11T16:33:24.758Z,3.40
2023-03-11T16:35:52.711Z,3.38
2023-03-11T16:38:23.210Z,3.38
2023-03-11T16:41:00.685Z,3.40
2023-03-11T16:43:31.708Z,3.40
2023-03-11T16:45:59.756Z,3.40
2023-03-11T16:48:27.979Z,3.41
2023-03-11T16:50:56.327Z,3.38
2023-03-11T16:53:26.287Z,3.33
2023-03-11T16:55:54.370Z,3.30
2023-03-11T16:58:22.646Z,3.26
2023-03-11T17:00:50.680Z,3.22
2023-03-11T17:03:21.915Z,3.19
2023-03-11T17:05:50.259Z,3.18
2023-03-11T17:08:18.491Z,3.16
2023-03-11T17:10:46.761Z,3.16
2023-03-11T17:13:17.776Z,3.14
2023-03-11T17:15:58.419Z,3.12
2023-03-11T17:18:27.502Z,3.10
2023-03-11T17:20:55.830Z,3.08
2023-03-11T17:23:24.461Z,3.04
2023-03-11T17:25:52.449Z,3.01
2023-03-11T17:28:20.486Z,2.99
2023-03-11T17:30:48.518Z,2.98
2023-03-11T17:33:16.532Z,2.97
2023-03-11T17:35:44.726Z,2.96
2023-03-11T17:38:14.719Z,2.95
2023-03-11T17:40:44.056Z,2.96
2023-03-11T17:43:12.440Z,2.96
2023-03-11T17:45:41.049Z,2.95
2023-03-11T17:48:09.017Z,2.94
2023-03-11T17:50:41.064Z,2.92
2023-03-11T17:53:09.878Z,2.93
2023-03-11T17:55:40.258Z,2.93
2023-03-11T17:58:09.173Z,2.93
2023-03-11T18:00:37.860Z,2.94
2023-03-11T18:03:05.951Z,2.95
2023-03-11T18:05:34.012Z,2.96
2023-03-11T18:08:01.929Z,2.96
2023-03-11T18:10:29.963Z,2.96
2023-03-11T18:12:57.973Z,2.97
2023-03-11T18:15:25.917Z,2.98
2023-03-11T18:17:57.046Z,2.99
2023-03-11T18:20:25.174Z,3.00
2023-03-11T18:22:53.363Z,3.01
2023-03-11T18:25:21.420Z,3.00
2023-03-11T18:27:49.429Z,3.00
2023-03-11T18:30:17.642Z,3.00
2023-03-11T18:32:45.717Z,2.98
2023-03-11T18:35:14.321Z,2.97
2023-03-11T18:37:42.313Z,2.94
2023-03-11T18:40:11.762Z,2.91
2023-03-11T18:42:39.887Z,2.90
2023-03-11T18:45:08.783Z,2.88
2023-03-11T18:47:36.694Z,2.86
2023-03-11T18:50:05.621Z,2.84
2023-03-11T18:52:33.735Z,2.82
2023-03-11T18:55:01.712Z,2.81
2023-03-11T18:57:29.835Z,2.81
2023-03-11T18:59:57.828Z,2.81
2023-03-11T19:02:26.382Z,2.80
2023-03-11T19:04:54.601Z,2.80
2023-03-11T19:07:22.765Z,2.79
2023-03-11T19:09:50.769Z,2.79
2023-03-11T19:12:19.163Z,2.79
2023-03-11T19:14:47.298Z,2.77
2023-03-11T19:17:18.252Z,2.77
2023-03-11T19:19:46.278Z,2.76
2023-03-11T19:22:14.278Z,2.75
2023-03-11T19:24:42.487Z,2.75
2023-03-11T19:27:10.492Z,2.73
2023-03-11T19:29:38.412Z,2.72
2023-03-11T19:32:06.476Z,2.70
2023-03-11T19:34:35.196Z,2.69
2023-03-11T19:37:03.186Z,2.68
2023-03-11T19:39:31.154Z,2.68
2023-03-11T19:41:59.211Z,2.69
2023-03-11T19:44:27.182Z,2.69
2023-03-11T19:46:55.306Z,2.69
2023-03-11T19:49:23.415Z,2.69
2023-03-11T19:51:53.076Z,2.70
2023-03-11T19:54:21.172Z,2.67
2023-03-11T19:56:50.018Z,2.60
2023-03-11T19:59:18.065Z,2.51
2023-03-11T20:01:46.602Z,2.39
2023-03-11T20:04:15.398Z,2.27
2023-03-11T20:06:44.186Z,2.22
2023-03-11T20:09:13.360Z,2.16
2023-03-11T20:11:41.758Z,2.09
2023-03-11T20:14:10.881Z,2.04
2023-03-11T20:16:39.309Z,2.00
2023-03-11T20:19:07.881Z,1.96
2023-03-11T20:21:39.428Z,1.95
2023-03-11T20:24:08.035Z,1.93
2023-03-11T20:26:36.924Z,1.90
2023-03-11T20:29:05.759Z,1.83
2023-03-11T20:31:34.090Z,1.77
2023-03-11T20:34:02.473Z,1.74
2023-03-11T20:36:33.136Z,1.70
2023-03-11T20:39:01.661Z,1.64
2023-03-11T20:41:34.748Z,1.62
2023-03-11T20:44:04.400Z,1.62
2023-03-11T20:46:34.023Z,1.65
2023-03-11T20:49:03.069Z,1.64
2023-03-11T20:51:31.053Z,1.62
2023-03-11T20:53:58.958Z,1.60
2023-03-11T20:56:27.105Z,1.58
2023-03-11T20:58:59.398Z,1.54
2023-03-11T21:01:33.076Z,1.52
2023-03-11T21:04:03.695Z,1.48
2023-03-11T21:06:37.425Z,1.46
2023-03-11T21:09:09.273Z,1.45
2023-03-11T21:11:38.035Z,1.41
2023-03-11T21:14:07.529Z,1.34
2023-03-11T21:16:37.881Z,1.26
2023-03-11T21:19:09.101Z,1.21
2023-03-11T21:21:37.704Z,1.17
2023-03-11T21:24:06.241Z,1.14
2023-03-11T21:26:34.748Z,1.07
2023-03-11T21:29:03.016Z,1.02
2023-03-11T21:31:31.529Z,0.96
2023-03-11T21:34:01.295Z,0.90
2023-03-11T21:36:30.230Z,0.84
2023-03-11T21:38:58.378Z,0.80
2023-03-11T21:41:27.914Z,0.77
2023-03-11T21:43:57.701Z,0.73
2023-03-11T21:46:29.840Z,0.70
2023-03-11T21:48:59.021Z,0.68
2023-03-11T21:51:27.960Z,0.66
2023-03-11T21:53:56.873Z,0.65
2023-03-11T21:56:25.273Z,0.63
2023-03-11T21:58:53.940Z,0.62
2023-03-11T22:01:22.354Z,0.59
2023-03-11T22:03:50.971Z,0.56
2023-03-11T22:06:19.574Z,0.55
2023-03-11T22:08:48.171Z,0.54
2023-03-11T22:11:19.621Z,0.53
2023-03-11T22:13:49.643Z,0.52
2023-03-11T22:16:19.115Z,0.51
2023-03-11T22:18:47.454Z,0.51
2023-03-11T22:21:16.663Z,0.49
2023-03-11T22:23:45.152Z,0.47
2023-03-11T22:26:14.806Z,0.45
2023-03-11T22:28:43.330Z,0.44
2023-03-11T22:31:14.990Z,0.43
2023-03-11T22:33:43.283Z,0.43
2023-03-11T22:36:11.377Z,0.42
2023-03-11T22:38:42.033Z,0.42
2023-03-11T22:41:11.850Z,0.43
2023-03-11T22:43:40.758Z,0.43
2023-03-11T22:46:09.065Z,0.42
2023-03-11T22:48:37.302Z,0.41
2023-03-11T22:51:05.764Z,0.42
2023-03-11T22:53:33.961Z,0.42
2023-03-11T22:56:11.544Z,0.41
2023-03-11T22:58:40.463Z,0.40
2023-03-11T23:01:09.631Z,0.39
2023-03-11T23:03:38.936Z,0.39
2023-03-11T23:06:09.297Z,0.38
2023-03-11T23:08:37.650Z,0.38
2023-03-11T23:11:11.495Z,0.37
2023-03-11T23:13:40.633Z,0.37
2023-03-11T23:16:14.156Z,0.36
2023-03-11T23:18:43.642Z,0.36
2023-03-11T23:21:17.157Z,0.33
2023-03-11T23:23:45.889Z,0.31
2023-03-11T23:26:15.716Z,0.30
2023-03-11T23:28:45.587Z,0.29
2023-03-11T23:31:15.623Z,0.27
2023-03-11T23:33:44.834Z,0.25
2023-03-11T23:36:17.398Z,0.23
2023-03-11T23:38:47.326Z,0.21
2023-03-11T23:41:18.454Z,0.19
2023-03-11T23:43:46.778Z,0.18
2023-03-11T23:46:15.789Z,0.18
2023-03-11T23:48:44.006Z,0.17
2023-03-11T23:51:13.287Z,0.15
2023-03-11T23:53:41.369Z,0.15
2023-03-11T23:56:17.026Z,0.14
2023-03-11T23:58:46.149Z,0.14
